createdAt,value
2023-02-18T00:00:36.330Z,2.27
2023-02-18T00:03:04.258Z,2.60
2023-02-18T00:05:32.192Z,3.00
2023-02-18T00:08:00.060Z,3.73
2023-02-18T00:10:29.349Z,2.40
2023-02-18T00:12:57.205Z,3.47
2023-02-18T00:15:25.077Z,3.10
2023-02-18T00:17:52.950Z,3.27
2023-02-18T00:20:21.125Z,3.10
2023-02-18T00:22:48.994Z,3.13
2023-02-18T00:25:17.118Z,3.00
2023-02-18T00:27:46.385Z,3.20
2023-02-18T00:30:14.825Z,2.70
2023-02-18T00:32:42.771Z,2.60
2023-02-18T00:35:10.818Z,2.87
2023-02-18T00:37:38.661Z,2.50
2023-02-18T00:40:08.021Z,2.80
2023-02-18T00:42:35.974Z,2.60
2023-02-18T00:45:05.884Z,2.67
2023-02-18T00:47:33.768Z,2.70
2023-02-18T00:50:01.694Z,3.77
2023-02-18T00:52:29.748Z,2.70
2023-02-18T00:54:57.611Z,2.80
2023-02-18T00:57:25.567Z,2.30
2023-02-18T00:59:53.508Z,2.50
2023-02-18T01:02:22.753Z,2.70
2023-02-18T01:04:50.709Z,2.77
2023-02-18T01:07:18.650Z,2.60
2023-02-18T01:09:46.620Z,2.53
2023-02-18T01:12:14.538Z,2.97
2023-02-18T01:14:42.515Z,2.63
2023-02-18T01:17:10.603Z,2.63
2023-02-18T01:19:39.876Z,2.90
2023-02-18T01:22:07.781Z,4.53
2023-02-18T01:24:35.660Z,2.93
2023-02-18T01:27:03.581Z,3.20
2023-02-18T01:29:31.656Z,2.93
2023-02-18T01:31:59.663Z,2.67
2023-02-18T01:34:27.596Z,3.00
2023-02-18T01:36:57.398Z,2.70
2023-02-18T01:39:25.274Z,2.60
2023-02-18T01:41:53.212Z,2.50
2023-02-18T01:44:23.950Z,2.53
2023-02-18T01:46:52.410Z,2.37
2023-02-18T01:49:24.836Z,2.83
2023-02-18T01:51:55.509Z,2.27
2023-02-18T01:54:30.095Z,3.30
2023-02-18T01:57:01.899Z,2.67
2023-02-18T01:59:32.947Z,2.20
2023-02-18T02:02:01.495Z,2.27
2023-02-18T02:04:29.548Z,1.80
2023-02-18T02:06:57.403Z,3.47
2023-02-18T02:09:29.526Z,2.27
2023-02-18T02:12:20.697Z,1.90
2023-02-18T02:15:04.865Z,1.97
2023-02-18T02:17:43.682Z,1.97
2023-02-18T02:20:45.044Z,1.80
2023-02-18T02:24:12.938Z,1.97
2023-02-18T02:27:12.831Z,1.93
2023-02-18T02:30:19.438Z,2.07
2023-02-18T02:33:25.768Z,2.10
2023-02-18T02:36:01.215Z,1.60
2023-02-18T02:38:35.881Z,1.90
2023-02-18T02:41:13.894Z,1.73
2023-02-18T02:43:52.656Z,2.53
2023-02-18T02:46:25.467Z,1.83
2023-02-18T02:48:59.198Z,2.03
2023-02-18T02:51:33.334Z,1.60
2023-02-18T02:54:12.546Z,1.80
2023-02-18T02:56:40.969Z,1.73
2023-02-18T02:59:15.890Z,1.73
2023-02-18T03:01:59.756Z,1.87
2023-02-18T03:04:46.272Z,1.90
2023-02-18T03:07:28.515Z,1.70
2023-02-18T03:10:18.434Z,1.80
2023-02-18T03:12:55.634Z,2.70
2023-02-18T03:15:28.612Z,1.70
2023-02-18T03:18:02.008Z,1.70
2023-02-18T03:20:36.386Z,1.90
2023-02-18T03:23:10.262Z,2.40
2023-02-18T03:25:39.898Z,2.13
2023-02-18T03:28:10.627Z,1.90
2023-02-18T03:30:44.650Z,2.30
2023-02-18T03:33:17.169Z,2.20
2023-02-18T03:35:47.183Z,1.90
2023-02-18T03:38:22.968Z,1.87
2023-02-18T03:40:51.124Z,2.17
2023-02-18T03:43:19.012Z,2.53
2023-02-18T03:45:46.903Z,2.03
2023-02-18T03:48:14.823Z,2.20
2023-02-18T03:50:42.653Z,2.27
2023-02-18T03:53:10.526Z,2.77
2023-02-18T03:55:39.730Z,1.73
2023-02-18T03:58:07.845Z,1.97
2023-02-18T04:00:35.883Z,1.60
2023-02-18T04:03:03.771Z,1.93
2023-02-18T04:05:31.643Z,1.70
2023-02-18T04:07:59.512Z,2.00
2023-02-18T04:10:27.494Z,2.03
2023-02-18T04:12:56.846Z,1.70
2023-02-18T04:15:24.763Z,2.13
2023-02-18T04:17:52.659Z,1.70
2023-02-18T04:20:23.004Z,1.60
2023-02-18T04:22:50.954Z,1.80
2023-02-18T04:25:18.888Z,1.63
2023-02-18T04:27:46.790Z,2.03
2023-02-18T04:30:18.794Z,1.70
2023-02-18T04:32:46.902Z,1.57
2023-02-18T04:35:15.061Z,2.10
2023-02-18T04:37:43.349Z,1.90
2023-02-18T04:40:11.986Z,1.83
2023-02-18T04:42:39.889Z,1.87
2023-02-18T04:45:08.490Z,1.57
2023-02-18T04:47:37.847Z,1.60
2023-02-18T04:50:06.705Z,2.00
2023-02-18T04:52:34.594Z,2.00
2023-02-18T04:55:02.458Z,1.77
2023-02-18T04:57:30.331Z,1.73
2023-02-18T04:59:58.198Z,2.03
2023-02-18T05:02:26.239Z,1.30
2023-02-18T05:04:55.520Z,1.43
2023-02-18T05:07:23.388Z,1.80
2023-02-18T05:09:51.353Z,2.00
2023-02-18T05:12:19.446Z,1.73
2023-02-18T05:14:47.431Z,2.03
2023-02-18T05:17:15.304Z,2.17
2023-02-18T05:19:43.257Z,1.87
2023-02-18T05:22:12.560Z,1.63
2023-02-18T05:24:40.480Z,1.90
2023-02-18T05:27:08.327Z,1.93
2023-02-18T05:29:36.253Z,3.10
2023-02-18T05:32:04.129Z,2.13
2023-02-18T05:34:32.042Z,1.90
2023-02-18T05:36:59.909Z,2.50
2023-02-18T05:39:29.259Z,2.80
2023-02-18T05:41:57.137Z,2.37
2023-02-18T05:44:31.313Z,2.47
2023-02-18T05:46:59.814Z,2.70
2023-02-18T05:49:27.924Z,2.90
2023-02-18T05:51:55.807Z,2.40
2023-02-18T05:54:24.461Z,3.80
2023-02-18T05:56:53.751Z,3.20
2023-02-18T05:59:22.066Z,3.17
2023-02-18T06:01:50.308Z,3.17
2023-02-18T06:04:18.458Z,3.80
2023-02-18T06:06:46.464Z,3.97
2023-02-18T06:09:14.804Z,3.90
2023-02-18T06:11:42.747Z,4.13
2023-02-18T06:14:12.018Z,4.83
2023-02-18T06:16:39.901Z,4.20
2023-02-18T06:19:07.839Z,3.93
2023-02-18T06:21:35.752Z,4.43
2023-02-18T06:24:03.697Z,3.90
2023-02-18T06:26:31.819Z,3.47
2023-02-18T06:28:59.790Z,4.10
2023-02-18T06:31:30.098Z,4.10
2023-02-18T06:33:58.270Z,3.93
2023-02-18T06:36:26.279Z,3.97
2023-02-18T06:38:56.253Z,4.77
2023-02-18T06:41:25.242Z,4.80
2023-02-18T06:43:53.128Z,4.23
2023-02-18T06:46:21.199Z,4.70
2023-02-18T06:48:50.687Z,4.60
2023-02-18T06:51:19.535Z,5.50
2023-02-18T06:53:47.672Z,4.90
2023-02-18T06:56:15.569Z,5.23
2023-02-18T06:58:43.550Z,5.10
2023-02-18T07:01:11.414Z,5.00
2023-02-18T07:03:39.403Z,5.10
2023-02-18T07:06:09.384Z,4.83
2023-02-18T07:08:37.688Z,4.80
2023-02-18T07:11:05.952Z,4.83
2023-02-18T07:13:33.841Z,4.77
2023-02-18T07:16:01.788Z,5.13
2023-02-18T07:18:29.781Z,5.03
2023-02-18T07:20:57.676Z,4.97
2023-02-18T07:23:26.919Z,4.53
2023-02-18T07:26:03.491Z,4.40
2023-02-18T07:28:31.369Z,5.03
2023-02-18T07:30:59.282Z,4.57
2023-02-18T07:33:27.179Z,4.53
2023-02-18T07:35:55.714Z,4.77
2023-02-18T07:38:24.990Z,4.70
2023-02-18T07:40:54.998Z,5.07
2023-02-18T07:43:23.557Z,4.70
2023-02-18T07:45:51.477Z,4.63
2023-02-18T07:48:19.508Z,4.63
2023-02-18T07:50:47.929Z,4.83
2023-02-18T07:53:17.359Z,4.90
2023-02-18T07:55:51.273Z,5.07
2023-02-18T07:58:24.034Z,5.13
2023-02-18T08:00:53.675Z,4.83
2023-02-18T08:03:24.011Z,4.93
2023-02-18T08:05:52.755Z,5.37
2023-02-18T08:08:22.810Z,5.03
2023-02-18T08:10:51.612Z,4.57
2023-02-18T08:13:19.566Z,4.57
2023-02-18T08:15:48.903Z,4.77
2023-02-18T08:18:18.781Z,4.80
2023-02-18T08:20:47.834Z,4.97
2023-02-18T08:23:16.920Z,4.93
2023-02-18T08:25:49.311Z,5.20
2023-02-18T08:28:18.280Z,5.73
2023-02-18T08:30:48.400Z,5.90
2023-02-18T08:33:17.421Z,7.17
2023-02-18T08:35:46.537Z,6.50
2023-02-18T08:38:14.819Z,6.37
2023-02-18T08:40:42.781Z,5.27
2023-02-18T08:43:10.918Z,4.80
2023-02-18T08:45:39.393Z,5.57
2023-02-18T08:48:18.112Z,4.63
2023-02-18T08:50:48.066Z,5.93
2023-02-18T08:53:16.002Z,7.83
2023-02-18T08:55:43.875Z,7.43
2023-02-18T08:58:11.976Z,6.13
2023-02-18T09:00:41.876Z,4.73
2023-02-18T09:03:14.124Z,4.50
2023-02-18T09:05:42.003Z,5.87
2023-02-18T09:08:10.019Z,5.63
2023-02-18T09:10:39.505Z,4.00
2023-02-18T09:13:07.405Z,3.40
2023-02-18T09:15:35.452Z,3.27
2023-02-18T09:18:03.466Z,2.90
2023-02-18T09:20:32.728Z,3.50
2023-02-18T09:23:01.727Z,3.87
2023-02-18T09:25:29.613Z,3.17
2023-02-18T09:27:57.510Z,3.10
2023-02-18T09:30:25.408Z,3.53
2023-02-18T09:32:53.407Z,3.20
2023-02-18T09:35:21.276Z,3.40
2023-02-18T09:37:50.519Z,3.33
2023-02-18T09:40:27.273Z,3.23
2023-02-18T09:42:57.214Z,3.63
2023-02-18T09:45:26.500Z,2.87
2023-02-18T09:47:55.443Z,3.07
2023-02-18T09:50:27.264Z,3.13
2023-02-18T09:52:57.147Z,3.10
2023-02-18T09:55:29.350Z,3.10
2023-02-18T09:58:00.115Z,3.20
2023-02-18T10:00:33.272Z,2.63
2023-02-18T10:03:05.219Z,2.80
2023-02-18T10:05:35.551Z,2.77
2023-02-18T10:08:07.744Z,2.60
2023-02-18T10:10:41.450Z,3.10
2023-02-18T10:13:15.368Z,2.83
2023-02-18T10:15:44.186Z,2.47
2023-02-18T10:18:22.778Z,2.83
2023-02-18T10:20:52.988Z,2.70
2023-02-18T10:23:23.244Z,2.63
2023-02-18T10:25:52.310Z,2.33
2023-02-18T10:28:24.437Z,2.67
2023-02-18T10:30:58.461Z,2.27
2023-02-18T10:33:35.194Z,2.50
2023-02-18T10:36:13.937Z,2.63
2023-02-18T10:38:59.765Z,2.40
2023-02-18T10:41:35.646Z,2.30
2023-02-18T10:44:14.533Z,2.40
2023-02-18T10:46:49.938Z,2.27
2023-02-18T10:49:52.690Z,2.17
2023-02-18T10:52:21.324Z,2.33
2023-02-18T10:54:54.046Z,2.73
2023-02-18T10:57:24.054Z,2.30
2023-02-18T11:00:11.587Z,2.40
2023-02-18T11:02:40.726Z,2.33
2023-02-18T11:05:20.848Z,2.50
2023-02-18T11:07:51.602Z,3.07
2023-02-18T11:10:26.395Z,2.87
2023-02-18T11:12:57.998Z,2.17
2023-02-18T11:15:27.818Z,2.93
2023-02-18T11:18:12.828Z,2.90
2023-02-18T11:20:41.723Z,2.20
2023-02-18T11:23:22.033Z,2.70
2023-02-18T11:26:01.427Z,3.00
2023-02-18T11:28:42.859Z,2.60
2023-02-18T11:31:17.703Z,2.27
2023-02-18T11:33:49.588Z,2.83
2023-02-18T11:36:25.241Z,2.30
2023-02-18T11:38:56.437Z,2.27
2023-02-18T11:41:34.880Z,2.57
2023-02-18T11:44:04.361Z,2.40
2023-02-18T11:46:32.401Z,2.40
2023-02-18T11:49:20.961Z,2.50
2023-02-18T11:51:50.336Z,2.63
2023-02-18T11:54:27.533Z,2.70
2023-02-18T11:56:59.804Z,2.53
2023-02-18T11:59:30.567Z,2.03
2023-02-18T12:02:04.807Z,2.43
2023-02-18T12:04:39.699Z,2.40
2023-02-18T12:07:18.405Z,3.23
2023-02-18T12:09:50.343Z,2.13
2023-02-18T12:12:28.518Z,2.40
2023-02-18T12:14:57.730Z,2.33
2023-02-18T12:17:46.539Z,2.50
2023-02-18T12:20:33.138Z,2.73
2023-02-18T12:23:13.038Z,2.50
2023-02-18T12:25:48.728Z,2.60
2023-02-18T12:28:31.901Z,3.00
2023-02-18T12:31:29.681Z,2.30
2023-02-18T12:34:19.891Z,2.30
2023-02-18T12:37:02.586Z,2.53
2023-02-18T12:39:53.446Z,2.60
2023-02-18T12:42:33.491Z,2.23
2023-02-18T12:45:23.041Z,2.00
2023-02-18T12:48:21.463Z,2.17
2023-02-18T12:51:01.818Z,3.00
2023-02-18T12:53:45.440Z,1.93
2023-02-18T12:56:34.443Z,1.90
2023-02-18T12:59:09.677Z,4.60
2023-02-18T13:01:52.891Z,2.60
2023-02-18T13:04:30.211Z,1.93
2023-02-18T13:07:26.438Z,2.10
2023-02-18T13:10:32.590Z,2.07
2023-02-18T13:13:05.375Z,1.93
2023-02-18T13:15:40.730Z,2.50
2023-02-18T13:18:17.358Z,2.60
2023-02-18T13:20:49.599Z,2.03
2023-02-18T13:23:23.947Z,1.90
2023-02-18T13:26:00.788Z,2.00
2023-02-18T13:28:34.096Z,2.57
2023-02-18T13:31:15.159Z,1.90
2023-02-18T13:33:52.167Z,1.90
2023-02-18T13:36:35.767Z,1.90
2023-02-18T13:39:07.418Z,2.00
2023-02-18T13:41:41.198Z,2.00
2023-02-18T13:44:11.344Z,2.07
2023-02-18T13:46:53.212Z,1.70
2023-02-18T13:49:24.991Z,1.40
2023-02-18T13:51:55.220Z,1.60
2023-02-18T13:54:27.518Z,1.30
2023-02-18T13:57:04.329Z,2.23
2023-02-18T13:59:35.794Z,1.70
2023-02-18T14:02:33.737Z,1.43
2023-02-18T14:05:23.700Z,2.00
2023-02-18T14:07:53.444Z,2.23
2023-02-18T14:10:34.861Z,1.90
2023-02-18T14:13:21.674Z,1.87
2023-02-18T14:15:56.532Z,4.07
2023-02-18T14:18:42.383Z,2.93
2023-02-18T14:21:42.656Z,2.10
2023-02-18T14:24:12.979Z,2.70
2023-02-18T14:26:46.360Z,2.27
2023-02-18T14:29:20.780Z,1.87
2023-02-18T14:31:52.582Z,2.60
2023-02-18T14:34:52.233Z,2.57
2023-02-18T14:37:47.749Z,2.03
2023-02-18T14:40:34.618Z,2.93
2023-02-18T14:43:09.498Z,2.37
2023-02-18T14:45:58.275Z,2.23
2023-02-18T14:48:57.569Z,1.87
2023-02-18T14:51:30.508Z,2.77
2023-02-18T14:54:05.335Z,1.87
2023-02-18T14:56:38.732Z,2.00
2023-02-18T14:59:07.702Z,2.50
2023-02-18T15:01:36.891Z,2.20
2023-02-18T15:04:05.356Z,2.27
2023-02-18T15:06:36.448Z,3.57
2023-02-18T15:09:13.969Z,2.90
2023-02-18T15:11:45.674Z,1.90
2023-02-18T15:14:19.595Z,2.73
2023-02-18T15:16:48.677Z,2.00
2023-02-18T15:19:19.267Z,1.80
2023-02-18T15:21:51.315Z,8.00
2023-02-18T15:24:26.492Z,4.70
2023-02-18T15:26:57.746Z,2.20
2023-02-18T15:29:27.412Z,3.17
2023-02-18T15:31:57.673Z,2.27
2023-02-18T15:34:36.397Z,2.40
2023-02-18T15:37:07.489Z,2.13
2023-02-18T15:39:38.703Z,2.60
2023-02-18T15:42:10.919Z,2.30
2023-02-18T15:44:39.420Z,2.37
2023-02-18T15:47:10.759Z,2.87
2023-02-18T15:49:40.927Z,3.23
2023-02-18T15:52:10.236Z,4.53
2023-02-18T15:54:41.808Z,3.70
2023-02-18T15:57:14.518Z,4.37
2023-02-18T15:59:47.190Z,3.83
2023-02-18T16:02:21.548Z,2.73
2023-02-18T16:04:53.846Z,2.73
2023-02-18T16:07:26.305Z,3.13
2023-02-18T16:10:09.759Z,2.93
2023-02-18T16:12:40.485Z,2.67
2023-02-18T16:15:15.716Z,2.60
2023-02-18T16:17:46.162Z,2.93
2023-02-18T16:20:25.891Z,2.60
2023-02-18T16:22:56.415Z,2.93
2023-02-18T16:25:26.582Z,3.03
2023-02-18T16:28:04.030Z,2.80
2023-02-18T16:30:33.697Z,2.67
2023-02-18T16:33:01.564Z,2.80
2023-02-18T16:35:43.967Z,3.50
2023-02-18T16:38:19.956Z,3.13
2023-02-18T16:40:47.939Z,2.33
2023-02-18T16:43:17.759Z,2.67
2023-02-18T16:45:49.727Z,2.97
2023-02-18T16:48:26.022Z,3.20
2023-02-18T16:50:54.305Z,3.13
2023-02-18T16:53:23.767Z,3.60
2023-02-18T16:55:52.315Z,3.20
2023-02-18T16:58:20.195Z,3.10
2023-02-18T17:00:50.066Z,3.13
2023-02-18T17:03:18.161Z,3.47
2023-02-18T17:05:46.089Z,3.50
2023-02-18T17:08:20.795Z,3.50
2023-02-18T17:10:51.313Z,3.50
2023-02-18T17:13:20.645Z,3.73
2023-02-18T17:15:51.213Z,3.57
2023-02-18T17:18:19.476Z,3.73
2023-02-18T17:20:49.079Z,3.30
2023-02-18T17:23:17.351Z,3.80
2023-02-18T17:25:46.531Z,3.77
2023-02-18T17:28:19.045Z,3.90
2023-02-18T17:30:49.467Z,4.10
2023-02-18T17:33:19.795Z,4.37
2023-02-18T17:35:47.638Z,5.00
2023-02-18T17:38:17.656Z,4.60
2023-02-18T17:40:46.044Z,4.40
2023-02-18T17:43:16.947Z,4.90
2023-02-18T17:45:49.586Z,4.10
2023-02-18T17:48:17.527Z,4.23
2023-02-18T17:50:45.617Z,4.43
2023-02-18T17:53:13.826Z,4.50
2023-02-18T17:55:42.688Z,4.80
2023-02-18T17:58:10.891Z,4.47
2023-02-18T18:00:43.679Z,4.30
2023-02-18T18:03:12.635Z,4.00
2023-02-18T18:05:42.261Z,3.87
2023-02-18T18:08:11.238Z,4.10
2023-02-18T18:10:41.907Z,4.70
2023-02-18T18:13:16.055Z,4.00
2023-02-18T18:15:45.461Z,4.53
2023-02-18T18:18:14.412Z,4.33
2023-02-18T18:20:45.059Z,3.70
2023-02-18T18:23:14.602Z,4.07
2023-02-18T18:25:44.747Z,4.73
2023-02-18T18:28:13.130Z,4.30
2023-02-18T18:30:44.111Z,4.23
2023-02-18T18:33:17.433Z,3.60
2023-02-18T18:35:47.571Z,3.40
2023-02-18T18:38:15.709Z,3.57
2023-02-18T18:40:44.465Z,3.40
2023-02-18T18:43:18.653Z,3.77
2023-02-18T18:45:46.887Z,3.50
2023-02-18T18:48:16.408Z,4.10
2023-02-18T18:50:45.073Z,3.77
2023-02-18T18:53:19.689Z,4.10
2023-02-18T18:55:50.467Z,3.77
2023-02-18T18:58:21.021Z,4.00
2023-02-18T19:00:51.642Z,3.83
2023-02-18T19:03:22.729Z,4.00
2023-02-18T19:05:54.008Z,3.60
2023-02-18T19:08:22.731Z,4.37
2023-02-18T19:10:52.467Z,4.00
2023-02-18T19:13:23.146Z,4.93
2023-02-18T19:16:00.194Z,4.80
2023-02-18T19:18:30.183Z,4.70
2023-02-18T19:20:58.027Z,4.70
2023-02-18T19:23:25.894Z,4.83
2023-02-18T19:25:53.791Z,4.57
2023-02-18T19:28:21.664Z,5.37
2023-02-18T19:30:49.959Z,4.40
2023-02-18T19:33:17.848Z,4.90
2023-02-18T19:35:47.259Z,5.13
2023-02-18T19:38:17.394Z,4.33
2023-02-18T19:40:46.816Z,4.13
2023-02-18T19:43:15.662Z,4.00
2023-02-18T19:45:44.962Z,3.70
2023-02-18T19:48:14.095Z,4.53
2023-02-18T19:50:42.883Z,4.57
2023-02-18T19:53:13.102Z,4.43
2023-02-18T19:55:41.291Z,5.30
2023-02-18T19:58:09.215Z,4.57
2023-02-18T20:00:37.436Z,3.83
2023-02-18T20:03:05.568Z,4.27
2023-02-18T20:05:38.495Z,4.20
2023-02-18T20:08:06.412Z,4.20
2023-02-18T20:10:36.764Z,4.50
2023-02-18T20:13:06.002Z,4.00
2023-02-18T20:15:33.850Z,4.60
2023-02-18T20:18:01.964Z,4.30
2023-02-18T20:20:29.890Z,5.03
2023-02-18T20:22:58.241Z,4.53
2023-02-18T20:25:26.763Z,4.50
2023-02-18T20:28:01.223Z,4.47
2023-02-18T20:30:30.129Z,5.40
2023-02-18T20:32:58.233Z,5.03
2023-02-18T20:35:26.623Z,4.80
2023-02-18T20:37:54.611Z,5.00
2023-02-18T20:40:22.489Z,5.50
2023-02-18T20:42:50.832Z,5.13
2023-02-18T20:45:20.425Z,5.70
2023-02-18T20:47:48.407Z,5.37
2023-02-18T20:50:16.512Z,5.30
2023-02-18T20:52:44.730Z,4.83
2023-02-18T20:55:12.601Z,5.10
2023-02-18T20:57:40.638Z,4.83
2023-02-18T21:00:09.538Z,5.03
2023-02-18T21:02:38.827Z,4.97
2023-02-18T21:05:07.296Z,5.47
2023-02-18T21:07:35.166Z,4.97
2023-02-18T21:10:04.140Z,4.97
2023-02-18T21:12:32.041Z,5.23
2023-02-18T21:14:59.895Z,5.43
2023-02-18T21:17:27.817Z,5.57
2023-02-18T21:19:57.037Z,5.30
2023-02-18T21:22:24.923Z,5.20
2023-02-18T21:24:52.796Z,5.70
2023-02-18T21:27:20.820Z,5.50
2023-02-18T21:29:48.725Z,5.50
2023-02-18T21:32:16.661Z,5.53
2023-02-18T21:34:44.544Z,5.07
2023-02-18T21:37:13.782Z,6.63
2023-02-18T21:39:41.796Z,6.57
2023-02-18T21:42:10.674Z,7.00
2023-02-18T21:44:42.983Z,6.63
2023-02-18T21:47:12.197Z,7.63
2023-02-18T21:49:40.089Z,6.77
2023-02-18T21:52:10.684Z,6.07
2023-02-18T21:54:41.692Z,6.50
2023-02-18T21:57:13.228Z,6.27
2023-02-18T21:59:41.684Z,6.07
2023-02-18T22:02:16.320Z,5.67
2023-02-18T22:04:44.222Z,5.93
2023-02-18T22:07:12.149Z,5.83
2023-02-18T22:09:41.848Z,5.77
2023-02-18T22:12:11.789Z,5.97
2023-02-18T22:14:40.060Z,5.70
2023-02-18T22:17:07.973Z,5.67
2023-02-18T22:19:36.127Z,5.87
2023-02-18T22:22:04.372Z,5.27
2023-02-18T22:24:33.118Z,5.70
2023-02-18T22:27:02.971Z,5.43
2023-02-18T22:29:32.223Z,5.57
2023-02-18T22:32:00.286Z,5.20
2023-02-18T22:34:28.476Z,5.43
2023-02-18T22:36:56.384Z,5.83
2023-02-18T22:39:24.387Z,5.20
2023-02-18T22:41:52.270Z,5.47
2023-02-18T22:44:22.976Z,5.73
2023-02-18T22:46:51.171Z,5.60
2023-02-18T22:49:19.126Z,5.40
2023-02-18T22:51:47.021Z,5.47
2023-02-18T22:54:16.824Z,5.53
2023-02-18T22:56:45.752Z,5.33
2023-02-18T22:59:16.313Z,5.70
2023-02-18T23:01:49.835Z,5.10
2023-02-18T23:04:19.847Z,5.93
2023-02-18T23:06:48.831Z,5.33
2023-02-18T23:09:19.526Z,5.57
2023-02-18T23:11:51.262Z,6.23
2023-02-18T23:14:19.460Z,5.47
2023-02-18T23:17:07.943Z,5.00
2023-02-18T23:19:36.901Z,5.60
2023-02-18T23:22:05.440Z,4.63
2023-02-18T23:24:34.401Z,4.93
2023-02-18T23:27:02.417Z,5.30
2023-02-18T23:29:30.320Z,5.13
2023-02-18T23:31:59.765Z,5.33
2023-02-18T23:34:28.574Z,5.70
2023-02-18T23:36:56.890Z,4.93
2023-02-18T23:39:25.589Z,4.60
2023-02-18T23:41:53.781Z,5.03
2023-02-18T23:44:23.741Z,4.93
2023-02-18T23:46:51.699Z,5.30
2023-02-18T23:49:23.154Z,5.10
2023-02-18T23:51:52.067Z,4.63
2023-02-18T23:54:22.535Z,4.60
2023-02-18T23:56:50.572Z,5.37
2023-02-18T23:59:18.507Z,5.27
